sensor_id;sensor_type;location;lat;lon;timestamp;P1;durP1;ratioP1;P2;durP2;ratioP2
30723;SDS011;17473;52.286;20.930;2022-08-14T00:02:22;15.65;;;11.30;;
30723;SDS011;17473;52.286;20.930;2022-08-14T00:04:52;13.07;;;10.95;;
30723;SDS011;17473;52.286;20.930;2022-08-14T00:07:20;14.80;;;10.85;;
30723;SDS011;17473;52.286;20.930;2022-08-14T00:09:47;17.83;;;10.80;;
30723;SDS011;17473;52.286;20.930;2022-08-14T00:12:36;14.18;;;10.00;;
30723;SDS011;17473;52.286;20.930;2022-08-14T00:15:23;11.07;;;9.93;;
30723;SDS011;17473;52.286;20.930;2022-08-14T00:18:09;17.83;;;10.35;;
30723;SDS011;17473;52.286;20.930;2022-08-14T00:20:56;16.60;;;10.18;;
30723;SDS011;17473;52.286;20.930;2022-08-14T00:23:26;13.38;;;9.25;;
30723;SDS011;17473;52.286;20.930;2022-08-14T00:25:54;11.82;;;7.88;;
30723;SDS011;17473;52.286;20.930;2022-08-14T00:28:32;11.55;;;8.55;;
30723;SDS011;17473;52.286;20.930;2022-08-14T00:31:03;10.02;;;8.30;;
30723;SDS011;17473;52.286;20.930;2022-08-14T00:33:33;12.15;;;8.55;;
30723;SDS011;17473;52.286;20.930;2022-08-14T00:36:17;13.05;;;8.02;;
30723;SDS011;17473;52.286;20.930;2022-08-14T00:39:07;14.52;;;8.70;;
30723;SDS011;17473;52.286;20.930;2022-08-14T00:41:37;14.25;;;8.55;;
30723;SDS011;17473;52.286;20.930;2022-08-14T00:44:07;9.43;;;8.10;;
30723;SDS011;17473;52.286;20.930;2022-08-14T00:46:36;16.52;;;8.10;;
30723;SDS011;17473;52.286;20.930;2022-08-14T00:49:04;14.63;;;8.48;;
30723;SDS011;17473;52.286;20.930;2022-08-14T00:51:40;12.18;;;8.35;;
30723;SDS011;17473;52.286;20.930;2022-08-14T00:54:13;9.27;;;7.28;;
30723;SDS011;17473;52.286;20.930;2022-08-14T00:56:50;11.48;;;8.32;;
30723;SDS011;17473;52.286;20.930;2022-08-14T00:59:21;13.93;;;7.97;;
30723;SDS011;17473;52.286;20.930;2022-08-14T01:01:53;12.90;;;7.57;;
30723;SDS011;17473;52.286;20.930;2022-08-14T01:04:23;11.68;;;7.22;;
30723;SDS011;17473;52.286;20.930;2022-08-14T01:07:12;12.25;;;7.68;;
30723;SDS011;17473;52.286;20.930;2022-08-14T01:09:47;10.50;;;7.53;;
30723;SDS011;17473;52.286;20.930;2022-08-14T01:12:24;9.60;;;6.60;;
30723;SDS011;17473;52.286;20.930;2022-08-14T01:14:58;11.45;;;7.30;;
30723;SDS011;17473;52.286;20.930;2022-08-14T01:17:29;9.75;;;7.38;;
30723;SDS011;17473;52.286;20.930;2022-08-14T01:20:18;13.23;;;6.88;;
30723;SDS011;17473;52.286;20.930;2022-08-14T01:23:10;11.40;;;7.70;;
30723;SDS011;17473;52.286;20.930;2022-08-14T01:25:45;11.52;;;6.90;;
30723;SDS011;17473;52.286;20.930;2022-08-14T01:28:14;11.93;;;6.88;;
30723;SDS011;17473;52.286;20.930;2022-08-14T01:31:01;11.52;;;7.38;;
30723;SDS011;17473;52.286;20.930;2022-08-14T01:33:32;10.25;;;6.85;;
30723;SDS011;17473;52.286;20.930;2022-08-14T01:36:19;8.30;;;6.15;;
30723;SDS011;17473;52.286;20.930;2022-08-14T01:38:51;16.20;;;6.40;;
30723;SDS011;17473;52.286;20.930;2022-08-14T01:41:24;10.45;;;6.15;;
30723;SDS011;17473;52.286;20.930;2022-08-14T01:44:00;9.07;;;6.13;;
30723;SDS011;17473;52.286;20.930;2022-08-14T01:46:51;9.10;;;5.90;;
30723;SDS011;17473;52.286;20.930;2022-08-14T01:49:26;9.15;;;6.35;;
30723;SDS011;17473;52.286;20.930;2022-08-14T01:52:00;10.02;;;6.18;;
30723;SDS011;17473;52.286;20.930;2022-08-14T01:54:38;10.63;;;6.60;;
30723;SDS011;17473;52.286;20.930;2022-08-14T01:57:05;11.23;;;6.85;;
30723;SDS011;17473;52.286;20.930;2022-08-14T01:59:37;9.38;;;6.47;;
30723;SDS011;17473;52.286;20.930;2022-08-14T02:02:09;8.25;;;5.93;;
30723;SDS011;17473;52.286;20.930;2022-08-14T02:04:45;11.90;;;7.22;;
30723;SDS011;17473;52.286;20.930;2022-08-14T02:07:22;9.77;;;5.60;;
30723;SDS011;17473;52.286;20.930;2022-08-14T02:10:11;11.77;;;6.10;;
30723;SDS011;17473;52.286;20.930;2022-08-14T02:12:41;11.15;;;5.70;;
30723;SDS011;17473;52.286;20.930;2022-08-14T02:15:19;7.38;;;5.75;;
30723;SDS011;17473;52.286;20.930;2022-08-14T02:17:48;8.95;;;5.45;;
30723;SDS011;17473;52.286;20.930;2022-08-14T02:20:16;8.25;;;6.43;;
30723;SDS011;17473;52.286;20.930;2022-08-14T02:22:49;11.15;;;6.50;;
30723;SDS011;17473;52.286;20.930;2022-08-14T02:25:20;11.50;;;6.25;;
30723;SDS011;17473;52.286;20.930;2022-08-14T02:27:48;10.05;;;5.82;;
30723;SDS011;17473;52.286;20.930;2022-08-14T02:30:35;8.23;;;6.22;;
30723;SDS011;17473;52.286;20.930;2022-08-14T02:33:04;11.13;;;6.22;;
30723;SDS011;17473;52.286;20.930;2022-08-14T02:35:32;16.58;;;6.32;;
30723;SDS011;17473;52.286;20.930;2022-08-14T02:38:06;12.23;;;5.78;;
30723;SDS011;17473;52.286;20.930;2022-08-14T02:40:37;9.70;;;6.40;;
30723;SDS011;17473;52.286;20.930;2022-08-14T02:43:07;10.50;;;6.43;;
30723;SDS011;17473;52.286;20.930;2022-08-14T02:45:35;13.20;;;5.85;;
30723;SDS011;17473;52.286;20.930;2022-08-14T02:48:10;8.25;;;6.15;;
30723;SDS011;17473;52.286;20.930;2022-08-14T02:50:58;8.95;;;5.75;;
30723;SDS011;17473;52.286;20.930;2022-08-14T02:53:28;11.32;;;6.18;;
30723;SDS011;17473;52.286;20.930;2022-08-14T02:55:57;8.27;;;5.78;;
30723;SDS011;17473;52.286;20.930;2022-08-14T02:58:30;9.35;;;5.63;;
30723;SDS011;17473;52.286;20.930;2022-08-14T03:01:07;13.38;;;5.50;;
30723;SDS011;17473;52.286;20.930;2022-08-14T03:03:36;8.30;;;5.75;;
30723;SDS011;17473;52.286;20.930;2022-08-14T03:06:05;8.18;;;5.55;;
30723;SDS011;17473;52.286;20.930;2022-08-14T03:08:34;9.85;;;5.68;;
30723;SDS011;17473;52.286;20.930;2022-08-14T03:11:04;8.30;;;6.22;;
30723;SDS011;17473;52.286;20.930;2022-08-14T03:13:35;12.30;;;6.35;;
30723;SDS011;17473;52.286;20.930;2022-08-14T03:16:12;8.20;;;5.32;;
30723;SDS011;17473;52.286;20.930;2022-08-14T03:18:46;9.88;;;6.18;;
30723;SDS011;17473;52.286;20.930;2022-08-14T03:21:18;12.73;;;5.93;;
30723;SDS011;17473;52.286;20.930;2022-08-14T03:23:50;11.45;;;6.05;;
30723;SDS011;17473;52.286;20.930;2022-08-14T03:26:48;10.60;;;5.65;;
30723;SDS011;17473;52.286;20.930;2022-08-14T03:29:22;11.43;;;5.97;;
30723;SDS011;17473;52.286;20.930;2022-08-14T03:31:51;8.38;;;6.05;;
30723;SDS011;17473;52.286;20.930;2022-08-14T03:34:19;10.52;;;5.80;;
30723;SDS011;17473;52.286;20.930;2022-08-14T03:37:08;10.77;;;5.82;;
30723;SDS011;17473;52.286;20.930;2022-08-14T03:39:58;8.90;;;5.95;;
30723;SDS011;17473;52.286;20.930;2022-08-14T03:42:25;10.10;;;5.53;;
30723;SDS011;17473;52.286;20.930;2022-08-14T03:45:01;9.43;;;5.63;;
30723;SDS011;17473;52.286;20.930;2022-08-14T03:47:51;9.73;;;5.93;;
30723;SDS011;17473;52.286;20.930;2022-08-14T03:50:24;12.38;;;5.57;;
30723;SDS011;17473;52.286;20.930;2022-08-14T03:52:56;13.65;;;5.55;;
30723;SDS011;17473;52.286;20.930;2022-08-14T03:55:27;6.88;;;5.55;;
30723;SDS011;17473;52.286;20.930;2022-08-14T03:57:55;10.00;;;5.22;;
30723;SDS011;17473;52.286;20.930;2022-08-14T04:00:26;9.43;;;6.22;;
30723;SDS011;17473;52.286;20.930;2022-08-14T04:03:09;9.27;;;5.47;;
30723;SDS011;17473;52.286;20.930;2022-08-14T04:05:49;8.65;;;5.93;;
30723;SDS011;17473;52.286;20.930;2022-08-14T04:08:16;11.35;;;6.13;;
30723;SDS011;17473;52.286;20.930;2022-08-14T04:10:56;16.48;;;6.20;;
30723;SDS011;17473;52.286;20.930;2022-08-14T04:13:33;10.23;;;5.28;;
30723;SDS011;17473;52.286;20.930;2022-08-14T04:16:10;8.38;;;5.78;;
30723;SDS011;17473;52.286;20.930;2022-08-14T04:18:42;10.65;;;5.72;;
30723;SDS011;17473;52.286;20.930;2022-08-14T04:21:12;15.18;;;6.85;;
30723;SDS011;17473;52.286;20.930;2022-08-14T04:23:41;9.82;;;5.65;;
30723;SDS011;17473;52.286;20.930;2022-08-14T04:26:22;9.48;;;5.90;;
30723;SDS011;17473;52.286;20.930;2022-08-14T04:28:52;7.13;;;5.90;;
30723;SDS011;17473;52.286;20.930;2022-08-14T04:31:40;11.27;;;5.40;;
30723;SDS011;17473;52.286;20.930;2022-08-14T04:34:27;8.05;;;5.65;;
30723;SDS011;17473;52.286;20.930;2022-08-14T04:36:55;12.23;;;6.30;;
30723;SDS011;17473;52.286;20.930;2022-08-14T04:39:50;8.65;;;5.38;;
30723;SDS011;17473;52.286;20.930;2022-08-14T04:42:40;8.68;;;5.40;;
30723;SDS011;17473;52.286;20.930;2022-08-14T04:45:27;13.50;;;6.00;;
30723;SDS011;17473;52.286;20.930;2022-08-14T04:48:04;9.13;;;5.95;;
30723;SDS011;17473;52.286;20.930;2022-08-14T04:51:00;12.35;;;6.22;;
30723;SDS011;17473;52.286;20.930;2022-08-14T04:53:31;14.35;;;5.88;;
30723;SDS011;17473;52.286;20.930;2022-08-14T04:56:06;8.35;;;5.75;;
30723;SDS011;17473;52.286;20.930;2022-08-14T04:58:54;15.57;;;5.88;;
30723;SDS011;17473;52.286;20.930;2022-08-14T05:01:28;11.98;;;5.32;;
30723;SDS011;17473;52.286;20.930;2022-08-14T05:04:05;7.38;;;5.70;;
30723;SDS011;17473;52.286;20.930;2022-08-14T05:06:39;15.68;;;6.55;;
30723;SDS011;17473;52.286;20.930;2022-08-14T05:09:07;7.32;;;5.57;;
30723;SDS011;17473;52.286;20.930;2022-08-14T05:11:39;12.45;;;6.10;;
30723;SDS011;17473;52.286;20.930;2022-08-14T05:14:09;9.68;;;5.97;;
30723;SDS011;17473;52.286;20.930;2022-08-14T05:16:57;6.65;;;5.78;;
30723;SDS011;17473;52.286;20.930;2022-08-14T05:19:27;13.23;;;6.60;;
30723;SDS011;17473;52.286;20.930;2022-08-14T05:21:58;7.43;;;5.88;;
30723;SDS011;17473;52.286;20.930;2022-08-14T05:24:43;11.38;;;7.10;;
30723;SDS011;17473;52.286;20.930;2022-08-14T05:27:17;10.73;;;7.10;;
30723;SDS011;17473;52.286;20.930;2022-08-14T05:29:49;11.95;;;6.75;;
30723;SDS011;17473;52.286;20.930;2022-08-14T05:32:20;11.38;;;7.30;;
30723;SDS011;17473;52.286;20.930;2022-08-14T05:34:53;13.95;;;7.43;;
30723;SDS011;17473;52.286;20.930;2022-08-14T05:37:25;11.55;;;6.80;;
30723;SDS011;17473;52.286;20.930;2022-08-14T05:39:55;20.25;;;7.28;;
30723;SDS011;17473;52.286;20.930;2022-08-14T05:42:24;9.45;;;6.75;;
30723;SDS011;17473;52.286;20.930;2022-08-14T05:44:57;12.77;;;7.13;;
30723;SDS011;17473;52.286;20.930;2022-08-14T05:47:25;9.63;;;6.78;;
30723;SDS011;17473;52.286;20.930;2022-08-14T05:49:58;9.15;;;7.68;;
30723;SDS011;17473;52.286;20.930;2022-08-14T05:52:27;12.20;;;7.13;;
30723;SDS011;17473;52.286;20.930;2022-08-14T05:55:08;10.13;;;7.05;;
30723;SDS011;17473;52.286;20.930;2022-08-14T06:00:31;9.60;;;6.60;;
30723;SDS011;17473;52.286;20.930;2022-08-14T06:03:12;15.80;;;6.75;;
30723;SDS011;17473;52.286;20.930;2022-08-14T06:05:47;11.15;;;7.35;;
30723;SDS011;17473;52.286;20.930;2022-08-14T06:08:26;12.27;;;7.10;;
30723;SDS011;17473;52.286;20.930;2022-08-14T06:11:07;14.18;;;6.93;;
30723;SDS011;17473;52.286;20.930;2022-08-14T06:13:45;12.93;;;7.50;;
30723;SDS011;17473;52.286;20.930;2022-08-14T06:16:14;8.95;;;7.78;;
30723;SDS011;17473;52.286;20.930;2022-08-14T06:18:47;8.70;;;7.10;;
30723;SDS011;17473;52.286;20.930;2022-08-14T06:21:18;12.20;;;6.88;;
30723;SDS011;17473;52.286;20.930;2022-08-14T06:23:48;11.70;;;8.05;;
30723;SDS011;17473;52.286;20.930;2022-08-14T06:26:15;9.68;;;7.38;;
30723;SDS011;17473;52.286;20.930;2022-08-14T06:28:47;11.20;;;7.82;;
30723;SDS011;17473;52.286;20.930;2022-08-14T06:31:17;14.00;;;7.38;;
30723;SDS011;17473;52.286;20.930;2022-08-14T06:33:47;11.27;;;7.35;;
30723;SDS011;17473;52.286;20.930;2022-08-14T06:36:35;13.70;;;7.68;;
30723;SDS011;17473;52.286;20.930;2022-08-14T06:39:04;10.60;;;9.05;;
30723;SDS011;17473;52.286;20.930;2022-08-14T06:41:35;14.38;;;9.27;;
30723;SDS011;17473;52.286;20.930;2022-08-14T06:44:24;12.27;;;9.25;;
30723;SDS011;17473;52.286;20.930;2022-08-14T06:46:58;16.58;;;9.02;;
30723;SDS011;17473;52.286;20.930;2022-08-14T06:49:28;13.82;;;9.57;;
30723;SDS011;17473;52.286;20.930;2022-08-14T06:52:10;12.23;;;9.77;;
30723;SDS011;17473;52.286;20.930;2022-08-14T06:54:41;15.43;;;10.73;;
30723;SDS011;17473;52.286;20.930;2022-08-14T06:57:09;13.05;;;8.95;;
30723;SDS011;17473;52.286;20.930;2022-08-14T06:59:39;12.10;;;9.52;;
30723;SDS011;17473;52.286;20.930;2022-08-14T07:02:07;13.02;;;10.07;;
30723;SDS011;17473;52.286;20.930;2022-08-14T07:04:54;15.40;;;9.95;;
30723;SDS011;17473;52.286;20.930;2022-08-14T07:07:46;11.18;;;9.20;;
30723;SDS011;17473;52.286;20.930;2022-08-14T07:10:13;10.10;;;9.00;;
30723;SDS011;17473;52.286;20.930;2022-08-14T07:12:43;16.23;;;9.18;;
30723;SDS011;17473;52.286;20.930;2022-08-14T07:15:29;14.80;;;9.75;;
30723;SDS011;17473;52.286;20.930;2022-08-14T07:18:05;13.80;;;9.65;;
30723;SDS011;17473;52.286;20.930;2022-08-14T07:20:34;16.45;;;9.70;;
30723;SDS011;17473;52.286;20.930;2022-08-14T07:23:03;12.48;;;10.23;;
30723;SDS011;17473;52.286;20.930;2022-08-14T07:25:46;12.82;;;9.75;;
30723;SDS011;17473;52.286;20.930;2022-08-14T07:28:27;13.23;;;9.32;;
30723;SDS011;17473;52.286;20.930;2022-08-14T07:30:59;11.98;;;9.68;;
30723;SDS011;17473;52.286;20.930;2022-08-14T07:33:41;10.23;;;9.18;;
30723;SDS011;17473;52.286;20.930;2022-08-14T07:36:16;17.95;;;9.80;;
30723;SDS011;17473;52.286;20.930;2022-08-14T07:38:55;15.40;;;9.45;;
30723;SDS011;17473;52.286;20.930;2022-08-14T07:41:38;14.07;;;10.55;;
30723;SDS011;17473;52.286;20.930;2022-08-14T07:44:09;18.88;;;9.63;;
30723;SDS011;17473;52.286;20.930;2022-08-14T07:46:56;10.88;;;8.80;;
30723;SDS011;17473;52.286;20.930;2022-08-14T07:49:24;9.68;;;8.60;;
30723;SDS011;17473;52.286;20.930;2022-08-14T07:51:53;17.65;;;9.80;;
30723;SDS011;17473;52.286;20.930;2022-08-14T07:54:20;17.75;;;8.45;;
30723;SDS011;17473;52.286;20.930;2022-08-14T07:56:54;11.73;;;9.45;;
30723;SDS011;17473;52.286;20.930;2022-08-14T07:59:26;12.55;;;9.63;;
30723;SDS011;17473;52.286;20.930;2022-08-14T08:02:08;14.50;;;10.52;;
30723;SDS011;17473;52.286;20.930;2022-08-14T08:04:50;12.55;;;9.90;;
30723;SDS011;17473;52.286;20.930;2022-08-14T08:07:28;12.93;;;10.02;;
30723;SDS011;17473;52.286;20.930;2022-08-14T08:09:57;17.33;;;10.35;;
30723;SDS011;17473;52.286;20.930;2022-08-14T08:12:27;18.25;;;10.75;;
30723;SDS011;17473;52.286;20.930;2022-08-14T08:14:57;16.33;;;10.40;;
30723;SDS011;17473;52.286;20.930;2022-08-14T08:17:36;21.23;;;10.95;;
30723;SDS011;17473;52.286;20.930;2022-08-14T08:20:19;11.75;;;9.73;;
30723;SDS011;17473;52.286;20.930;2022-08-14T08:22:52;15.63;;;10.95;;
30723;SDS011;17473;52.286;20.930;2022-08-14T08:25:32;18.70;;;11.38;;
30723;SDS011;17473;52.286;20.930;2022-08-14T08:28:12;17.77;;;10.80;;
30723;SDS011;17473;52.286;20.930;2022-08-14T08:30:54;18.65;;;12.00;;
30723;SDS011;17473;52.286;20.930;2022-08-14T08:33:26;15.65;;;10.45;;
30723;SDS011;17473;52.286;20.930;2022-08-14T08:36:06;13.93;;;10.75;;
30723;SDS011;17473;52.286;20.930;2022-08-14T08:38:43;13.00;;;10.48;;
30723;SDS011;17473;52.286;20.930;2022-08-14T08:41:40;11.88;;;10.15;;
30723;SDS011;17473;52.286;20.930;2022-08-14T08:44:14;14.77;;;11.10;;
30723;SDS011;17473;52.286;20.930;2022-08-14T08:46:57;18.95;;;10.52;;
30723;SDS011;17473;52.286;20.930;2022-08-14T08:49:38;16.15;;;11.02;;
30723;SDS011;17473;52.286;20.930;2022-08-14T08:52:26;16.63;;;10.13;;
30723;SDS011;17473;52.286;20.930;2022-08-14T08:54:57;15.73;;;10.75;;
30723;SDS011;17473;52.286;20.930;2022-08-14T08:57:32;15.25;;;10.80;;
30723;SDS011;17473;52.286;20.930;2022-08-14T09:00:11;13.68;;;11.10;;
30723;SDS011;17473;52.286;20.930;2022-08-14T09:02:55;17.25;;;11.55;;
30723;SDS011;17473;52.286;20.930;2022-08-14T09:05:37;19.00;;;11.57;;
30723;SDS011;17473;52.286;20.930;2022-08-14T09:08:30;14.55;;;9.98;;
30723;SDS011;17473;52.286;20.930;2022-08-14T09:11:06;14.90;;;10.88;;
30723;SDS011;17473;52.286;20.930;2022-08-14T09:13:47;14.70;;;10.82;;
30723;SDS011;17473;52.286;20.930;2022-08-14T09:16:22;18.48;;;11.20;;
30723;SDS011;17473;52.286;20.930;2022-08-14T09:18:51;21.23;;;10.30;;
30723;SDS011;17473;52.286;20.930;2022-08-14T09:21:20;14.98;;;10.40;;
30723;SDS011;17473;52.286;20.930;2022-08-14T09:23:51;20.70;;;11.63;;
30723;SDS011;17473;52.286;20.930;2022-08-14T09:26:41;15.70;;;11.93;;
30723;SDS011;17473;52.286;20.930;2022-08-14T09:29:14;14.15;;;11.07;;
30723;SDS011;17473;52.286;20.930;2022-08-14T09:31:46;13.48;;;10.52;;
30723;SDS011;17473;52.286;20.930;2022-08-14T09:37:39;18.08;;;10.90;;
30723;SDS011;17473;52.286;20.930;2022-08-14T09:53:11;14.32;;;10.13;;
30723;SDS011;17473;52.286;20.930;2022-08-14T09:56:17;17.55;;;11.00;;
30723;SDS011;17473;52.286;20.930;2022-08-14T09:58:56;13.23;;;10.65;;
30723;SDS011;17473;52.286;20.930;2022-08-14T10:01:35;19.88;;;11.13;;
30723;SDS011;17473;52.286;20.930;2022-08-14T10:04:18;15.80;;;11.40;;
30723;SDS011;17473;52.286;20.930;2022-08-14T10:07:01;14.23;;;11.27;;
30723;SDS011;17473;52.286;20.930;2022-08-14T10:09:30;13.98;;;10.38;;
30723;SDS011;17473;52.286;20.930;2022-08-14T10:11:58;14.77;;;11.30;;
30723;SDS011;17473;52.286;20.930;2022-08-14T10:14:32;16.58;;;11.02;;
30723;SDS011;17473;52.286;20.930;2022-08-14T10:17:03;17.08;;;11.57;;
30723;SDS011;17473;52.286;20.930;2022-08-14T10:19:34;15.48;;;11.60;;
30723;SDS011;17473;52.286;20.930;2022-08-14T10:22:13;15.18;;;11.80;;
30723;SDS011;17473;52.286;20.930;2022-08-14T10:25:08;17.85;;;10.32;;
30723;SDS011;17473;52.286;20.930;2022-08-14T10:27:40;16.17;;;12.38;;
30723;SDS011;17473;52.286;20.930;2022-08-14T10:30:16;17.42;;;11.25;;
30723;SDS011;17473;52.286;20.930;2022-08-14T10:32:48;16.42;;;11.38;;
30723;SDS011;17473;52.286;20.930;2022-08-14T10:35:17;19.40;;;12.35;;
30723;SDS011;17473;52.286;20.930;2022-08-14T10:37:49;14.43;;;12.20;;
30723;SDS011;17473;52.286;20.930;2022-08-14T10:40:25;18.08;;;12.25;;
30723;SDS011;17473;52.286;20.930;2022-08-14T10:46:10;16.58;;;12.35;;
30723;SDS011;17473;52.286;20.930;2022-08-14T10:49:03;20.23;;;11.80;;
30723;SDS011;17473;52.286;20.930;2022-08-14T10:51:34;20.05;;;11.75;;
30723;SDS011;17473;52.286;20.930;2022-08-14T10:54:07;15.85;;;11.32;;
30723;SDS011;17473;52.286;20.930;2022-08-14T10:56:51;19.25;;;12.13;;
30723;SDS011;17473;52.286;20.930;2022-08-14T10:59:21;15.88;;;11.90;;
30723;SDS011;17473;52.286;20.930;2022-08-14T11:01:56;20.95;;;11.85;;
30723;SDS011;17473;52.286;20.930;2022-08-14T11:04:25;19.65;;;12.63;;
30723;SDS011;17473;52.286;20.930;2022-08-14T11:06:56;14.98;;;12.45;;
30723;SDS011;17473;52.286;20.930;2022-08-14T11:09:23;21.60;;;11.73;;
30723;SDS011;17473;52.286;20.930;2022-08-14T11:11:56;12.82;;;11.52;;
30723;SDS011;17473;52.286;20.930;2022-08-14T11:14:50;19.40;;;12.60;;
30723;SDS011;17473;52.286;20.930;2022-08-14T11:17:29;14.63;;;11.02;;
30723;SDS011;17473;52.286;20.930;2022-08-14T11:19:59;17.95;;;11.15;;
30723;SDS011;17473;52.286;20.930;2022-08-14T11:22:29;12.65;;;11.10;;
30723;SDS011;17473;52.286;20.930;2022-08-14T11:25:18;18.52;;;11.85;;
30723;SDS011;17473;52.286;20.930;2022-08-14T11:27:52;15.57;;;12.00;;
30723;SDS011;17473;52.286;20.930;2022-08-14T11:30:25;16.55;;;11.63;;
30723;SDS011;17473;52.286;20.930;2022-08-14T11:33:20;14.10;;;11.02;;
30723;SDS011;17473;52.286;20.930;2022-08-14T11:35:57;19.52;;;11.77;;
30723;SDS011;17473;52.286;20.930;2022-08-14T11:38:27;19.63;;;12.32;;
30723;SDS011;17473;52.286;20.930;2022-08-14T11:41:11;16.63;;;11.13;;
30723;SDS011;17473;52.286;20.930;2022-08-14T11:43:43;15.65;;;12.50;;
30723;SDS011;17473;52.286;20.930;2022-08-14T11:46:24;17.20;;;11.45;;
30723;SDS011;17473;52.286;20.930;2022-08-14T11:49:02;15.95;;;11.68;;
30723;SDS011;17473;52.286;20.930;2022-08-14T11:51:32;19.67;;;13.00;;
30723;SDS011;17473;52.286;20.930;2022-08-14T11:54:19;19.35;;;12.73;;
30723;SDS011;17473;52.286;20.930;2022-08-14T11:57:00;18.77;;;12.70;;
30723;SDS011;17473;52.286;20.930;2022-08-14T11:59:29;16.58;;;13.13;;
30723;SDS011;17473;52.286;20.930;2022-08-14T12:02:11;13.82;;;11.98;;
30723;SDS011;17473;52.286;20.930;2022-08-14T12:05:02;16.92;;;13.15;;
30723;SDS011;17473;52.286;20.930;2022-08-14T12:07:34;14.45;;;11.85;;
30723;SDS011;17473;52.286;20.930;2022-08-14T12:10:13;13.25;;;11.82;;
30723;SDS011;17473;52.286;20.930;2022-08-14T12:13:18;16.30;;;12.93;;
30723;SDS011;17473;52.286;20.930;2022-08-14T12:15:57;17.15;;;13.10;;
30723;SDS011;17473;52.286;20.930;2022-08-14T12:18:37;14.82;;;11.82;;
30723;SDS011;17473;52.286;20.930;2022-08-14T12:21:17;18.40;;;12.25;;
30723;SDS011;17473;52.286;20.930;2022-08-14T12:24:03;16.73;;;11.63;;
30723;SDS011;17473;52.286;20.930;2022-08-14T12:26:33;16.30;;;11.80;;
30723;SDS011;17473;52.286;20.930;2022-08-14T12:29:06;15.90;;;11.50;;
30723;SDS011;17473;52.286;20.930;2022-08-14T12:31:41;18.08;;;12.65;;
30723;SDS011;17473;52.286;20.930;2022-08-14T12:34:16;19.85;;;12.13;;
30723;SDS011;17473;52.286;20.930;2022-08-14T12:36:47;15.50;;;12.38;;
30723;SDS011;17473;52.286;20.930;2022-08-14T12:41:49;17.65;;;13.10;;
30723;SDS011;17473;52.286;20.930;2022-08-14T12:47:06;16.85;;;11.57;;
30723;SDS011;17473;52.286;20.930;2022-08-14T12:49:46;21.08;;;11.52;;
30723;SDS011;17473;52.286;20.930;2022-08-14T12:52:26;17.38;;;12.15;;
30723;SDS011;17473;52.286;20.930;2022-08-14T12:55:21;19.08;;;12.55;;
30723;SDS011;17473;52.286;20.930;2022-08-14T12:58:09;14.48;;;11.18;;
30723;SDS011;17473;52.286;20.930;2022-08-14T13:00:57;15.45;;;11.02;;
30723;SDS011;17473;52.286;20.930;2022-08-14T13:03:41;16.70;;;10.85;;
30723;SDS011;17473;52.286;20.930;2022-08-14T13:06:10;16.35;;;11.55;;
30723;SDS011;17473;52.286;20.930;2022-08-14T13:08:40;15.90;;;11.68;;
30723;SDS011;17473;52.286;20.930;2022-08-14T13:11:18;16.40;;;11.20;;
30723;SDS011;17473;52.286;20.930;2022-08-14T13:13:49;14.05;;;11.48;;
30723;SDS011;17473;52.286;20.930;2022-08-14T13:16:23;18.15;;;12.55;;
30723;SDS011;17473;52.286;20.930;2022-08-14T13:19:04;18.13;;;12.02;;
30723;SDS011;17473;52.286;20.930;2022-08-14T13:21:42;15.35;;;11.10;;
30723;SDS011;17473;52.286;20.930;2022-08-14T13:24:31;16.88;;;10.43;;
30723;SDS011;17473;52.286;20.930;2022-08-14T13:26:59;15.45;;;11.10;;
30723;SDS011;17473;52.286;20.930;2022-08-14T13:29:31;12.77;;;10.70;;
30723;SDS011;17473;52.286;20.930;2022-08-14T13:32:12;15.25;;;12.00;;
30723;SDS011;17473;52.286;20.930;2022-08-14T13:34:41;13.50;;;10.65;;
30723;SDS011;17473;52.286;20.930;2022-08-14T13:37:12;15.75;;;11.38;;
30723;SDS011;17473;52.286;20.930;2022-08-14T13:39:52;16.88;;;10.68;;
30723;SDS011;17473;52.286;20.930;2022-08-14T13:42:23;17.42;;;10.68;;
30723;SDS011;17473;52.286;20.930;2022-08-14T13:44:56;12.63;;;10.25;;
30723;SDS011;17473;52.286;20.930;2022-08-14T13:47:29;15.48;;;10.40;;
30723;SDS011;17473;52.286;20.930;2022-08-14T13:50:00;15.20;;;11.02;;
30723;SDS011;17473;52.286;20.930;2022-08-14T13:52:38;12.77;;;10.55;;
30723;SDS011;17473;52.286;20.930;2022-08-14T13:55:25;17.15;;;10.65;;
30723;SDS011;17473;52.286;20.930;2022-08-14T13:57:56;17.00;;;10.38;;
30723;SDS011;17473;52.286;20.930;2022-08-14T14:00:33;13.75;;;10.10;;
30723;SDS011;17473;52.286;20.930;2022-08-14T14:03:22;21.88;;;11.57;;
30723;SDS011;17473;52.286;20.930;2022-08-14T14:05:57;15.73;;;10.73;;
30723;SDS011;17473;52.286;20.930;2022-08-14T14:08:25;12.45;;;11.05;;
30723;SDS011;17473;52.286;20.930;2022-08-14T14:11:13;15.63;;;11.63;;
30723;SDS011;17473;52.286;20.930;2022-08-14T14:13:58;20.85;;;12.18;;
30723;SDS011;17473;52.286;20.930;2022-08-14T14:16:25;21.02;;;11.30;;
30723;SDS011;17473;52.286;20.930;2022-08-14T14:18:56;21.02;;;11.13;;
30723;SDS011;17473;52.286;20.930;2022-08-14T14:21:35;16.35;;;11.55;;
30723;SDS011;17473;52.286;20.930;2022-08-14T14:24:07;15.65;;;11.02;;
30723;SDS011;17473;52.286;20.930;2022-08-14T14:26:45;12.68;;;10.80;;
30723;SDS011;17473;52.286;20.930;2022-08-14T14:29:16;19.02;;;11.57;;
30723;SDS011;17473;52.286;20.930;2022-08-14T14:31:51;14.45;;;11.23;;
30723;SDS011;17473;52.286;20.930;2022-08-14T14:34:20;14.88;;;11.65;;
30723;SDS011;17473;52.286;20.930;2022-08-14T14:36:55;15.52;;;10.55;;
30723;SDS011;17473;52.286;20.930;2022-08-14T14:39:29;14.43;;;11.43;;
30723;SDS011;17473;52.286;20.930;2022-08-14T14:42:19;12.05;;;10.75;;
30723;SDS011;17473;52.286;20.930;2022-08-14T14:45:02;14.07;;;10.70;;
30723;SDS011;17473;52.286;20.930;2022-08-14T14:47:44;16.77;;;11.38;;
30723;SDS011;17473;52.286;20.930;2022-08-14T14:50:24;15.68;;;11.65;;
30723;SDS011;17473;52.286;20.930;2022-08-14T14:52:53;19.58;;;10.93;;
30723;SDS011;17473;52.286;20.930;2022-08-14T14:55:38;21.02;;;12.18;;
30723;SDS011;17473;52.286;20.930;2022-08-14T14:58:27;15.93;;;11.30;;
30723;SDS011;17473;52.286;20.930;2022-08-14T15:00:58;18.20;;;11.65;;
30723;SDS011;17473;52.286;20.930;2022-08-14T15:03:36;18.90;;;11.27;;
30723;SDS011;17473;52.286;20.930;2022-08-14T15:06:06;16.13;;;11.45;;
30723;SDS011;17473;52.286;20.930;2022-08-14T15:08:37;12.85;;;10.55;;
30723;SDS011;17473;52.286;20.930;2022-08-14T15:11:25;16.77;;;11.23;;
30723;SDS011;17473;52.286;20.930;2022-08-14T15:13:55;15.77;;;11.50;;
30723;SDS011;17473;52.286;20.930;2022-08-14T15:16:22;20.75;;;11.45;;
30723;SDS011;17473;52.286;20.930;2022-08-14T15:18:50;14.57;;;10.88;;
30723;SDS011;17473;52.286;20.930;2022-08-14T15:21:18;16.52;;;11.40;;
30723;SDS011;17473;52.286;20.930;2022-08-14T15:23:45;11.48;;;10.32;;
30723;SDS011;17473;52.286;20.930;2022-08-14T15:26:16;17.25;;;11.63;;
30723;SDS011;17473;52.286;20.930;2022-08-14T15:28:57;15.40;;;11.23;;
30723;SDS011;17473;52.286;20.930;2022-08-14T15:31:31;13.65;;;11.60;;
30723;SDS011;17473;52.286;20.930;2022-08-14T15:34:02;14.90;;;11.73;;
30723;SDS011;17473;52.286;20.930;2022-08-14T15:36:56;21.27;;;12.05;;